메인 페이지
METAR-TAF:

METAR-TAF

공항 :

비라코푸스 캄피나스 국제공항

캄피나스, 상파울루, 브라질

위도: 23-00S, 경도: 047-08W, 고도: 661m

현재 날씨관측

예보는 46분 전, 22:00시(UTC)에 발표되었습니다.
무풍
온도 28°C
습도 51%
기압 1014 hPa
시정 10km 이상
고도 4500ft 상공 구름 조금

METAR: SBKP 022200Z 00000KT 9999 FEW045 28/17 Q1014

시각: 19:46 (22:46 UTC)

예보

예보는 6 시간 46분 전, 16:00시(UTC)에 발표되었습니다.
예보 대상 시간: 02일 18시부터 03일 18시까지 (UTC)
7kt
시정 10km 이상
고도 3500ft 상공 구름 보통
일시적
02일 18시부터 02일 21시까지 (UTC)
고도 3500ft 상공 구름 보통
고도 4500ft 상공 구름 조금, 적란운.
뇌우, 비
전환 중
02일 23시부터 03일 01시까지 (UTC)
남동10kt
고도 4000ft 상공 구름 조금
전환 중
03일 05시부터 03일 07시까지 (UTC)
5kt
시정 10km 이상
1500m 미만 상공 구름 및 적란운 없음
전환 중
03일 10시부터 03일 12시까지 (UTC)
5kt
전환 중
03일 12시부터 03일 14시까지 (UTC)
10kt
고도 4000ft 상공 구름 보통

TAF: SBKP 021600Z 0218/0318 36007KT 9999 SCT035 TX29/0218Z TN20/0308Z TEMPO 0218/0221 TSRA SCT035 FEW045CB BECMG 0223/0301 13010KT FEW040 BECMG 0305/0307 10005KT CAVOK BECMG 0310/0312 08005KT BECMG 0312/0314 01010KT SCT040 RMK PGQ

4,000개 이상의 공항 관측 자료 및 예보 (METAR 및 TAF 보고).

지도상에서 검색 가능한 기상관측소가 노란 점과 빨간 점으로 표시되어 있습니다.

기상관측소 명을 보려면 표시 위로 마우스를 이동하세요.

날씨 관측과 예보를 보려면 클릭하세요.

지도 변경 : 확대하려면 엑스 표시가 있는 녹색 버튼, 축소하려면 빼기 표시가 있는 녹색 버튼, 다음 페이지의 지도를 보려면 녹색 화살표를 클릭하세요.


METAR-TAF: